Time;durP1;ratioP1;P1;durP2;ratioP2;P2;SDS_P1;SDS_P2;PMS_P1;PMS_P2;Temp;Humidity;BMP_temperature;BMP_pressure;BME280_temperature;BME280_humidity;BME280_pressure;Samples;Min_cycle;Max_cycle;Signal;HPM_P1;HPM_P2
2021/01/09 00:02:01;;;;;;;14.63;10.93;;;2.90;99.90;;;;;;5022455;28;20454;-82
2021/01/09 00:04:27;;;;;;;15.50;10.40;;;3.00;99.90;;;;;;5021154;28;20584;-82
2021/01/09 00:06:55;;;;;;;16.13;11.93;;;2.90;99.90;;;;;;5023030;28;20971;-82
2021/01/09 00:09:22;;;;;;;17.50;13.53;;;3.00;99.90;;;;;;5026426;28;20973;-81
2021/01/09 00:11:48;;;;;;;16.60;11.87;;;3.10;99.90;;;;;;5012974;28;20461;-82
2021/01/09 00:14:19;;;;;;;18.73;11.60;;;3.10;99.90;;;;;;5011788;28;20972;-88
2021/01/09 00:16:47;;;;;;;15.70;10.73;;;3.00;99.90;;;;;;5013471;28;20452;-81
2021/01/09 00:19:14;;;;;;;14.90;10.80;;;3.00;99.90;;;;;;5012879;28;20455;-84
2021/01/09 00:21:45;;;;;;;15.90;12.47;;;3.00;99.90;;;;;;5016386;28;20467;-81
2021/01/09 00:24:12;;;;;;;17.03;10.07;;;3.00;99.90;;;;;;5026728;28;20521;-83
2021/01/09 00:26:39;;;;;;;16.73;11.93;;;3.00;99.90;;;;;;5013140;28;21163;-82
2021/01/09 00:29:18;;;;;;;16.27;11.60;;;3.00;99.90;;;;;;5012976;28;20492;-81
2021/01/09 00:31:55;;;;;;;15.80;10.40;;;3.10;99.90;;;;;;5016937;28;20487;-81
2021/01/09 00:34:23;;;;;;;14.00;10.83;;;3.10;99.90;;;;;;5013361;28;20441;-83
2021/01/09 00:36:59;;;;;;;17.73;12.60;;;3.10;99.90;;;;;;5013521;28;20458;-82
2021/01/09 00:39:31;;;;;;;18.53;13.07;;;3.20;99.90;;;;;;5013091;28;20488;-83
2021/01/09 00:42:04;;;;;;;17.47;11.57;;;3.20;99.90;;;;;;5013800;28;20533;-83
2021/01/09 00:44:33;;;;;;;17.97;11.43;;;3.20;99.90;;;;;;5012855;28;20492;-83
2021/01/09 00:47:01;;;;;;;15.83;11.80;;;3.20;99.90;;;;;;5001737;28;20541;-83
2021/01/09 00:49:28;;;;;;;17.50;12.40;;;3.20;99.90;;;;;;5013222;28;20453;-83
2021/01/09 00:52:20;;;;;;;17.40;13.33;;;3.20;99.90;;;;;;5013534;28;20489;-83
2021/01/09 00:54:59;;;;;;;18.33;13.07;;;3.20;99.90;;;;;;5004829;28;20530;-82
2021/01/09 00:57:42;;;;;;;17.50;12.07;;;3.20;99.90;;;;;;5012699;28;20462;-82
2021/01/09 01:00:16;;;;;;;18.63;13.50;;;3.20;99.90;;;;;;5017473;28;20487;-82
2021/01/09 01:02:57;;;;;;;17.90;12.13;;;3.20;99.90;;;;;;5017687;28;20480;-82
2021/01/09 01:05:35;;;;;;;23.10;13.43;;;3.20;99.90;;;;;;5018202;28;20442;-81
2021/01/09 01:08:04;;;;;;;17.17;13.27;;;3.10;99.90;;;;;;5024696;28;20494;-81
2021/01/09 01:10:48;;;;;;;25.03;15.40;;;3.10;99.90;;;;;;5016859;28;20441;-81
2021/01/09 01:13:34;;;;;;;17.57;12.90;;;2.90;99.90;;;;;;4997625;28;20442;-86
2021/01/09 01:16:00;;;;;;;16.07;12.27;;;2.90;99.90;;;;;;5011184;28;20901;-83
2021/01/09 01:18:27;;;;;;;17.10;12.13;;;2.90;99.90;;;;;;5016637;28;20542;-82
2021/01/09 01:21:00;;;;;;;19.63;12.23;;;2.90;99.90;;;;;;5017027;28;20508;-82
2021/01/09 01:23:38;;;;;;;15.57;11.17;;;2.80;99.90;;;;;;5016078;28;20481;-81
2021/01/09 01:26:08;;;;;;;17.00;12.60;;;2.90;99.90;;;;;;5016100;28;20488;-82
2021/01/09 01:28:38;;;;;;;15.43;11.77;;;2.90;99.90;;;;;;5040784;28;21149;-81
2021/01/09 01:31:04;;;;;;;16.23;11.47;;;2.90;99.90;;;;;;5020342;28;20485;-82
2021/01/09 01:33:31;;;;;;;16.53;12.27;;;2.80;99.90;;;;;;5015859;28;20462;-82
2021/01/09 01:36:02;;;;;;;15.93;12.10;;;2.80;99.90;;;;;;5016950;28;20553;-82
2021/01/09 01:38:30;;;;;;;19.03;12.30;;;2.90;99.90;;;;;;4996635;28;20930;-82
2021/01/09 01:41:03;;;;;;;15.90;12.63;;;2.90;99.90;;;;;;4997042;28;20505;-82
2021/01/09 01:43:31;;;;;;;20.00;12.50;;;2.90;99.90;;;;;;4999717;28;20506;-81
2021/01/09 01:46:03;;;;;;;17.73;11.03;;;2.90;99.90;;;;;;5024076;28;20485;-81
2021/01/09 01:48:35;;;;;;;19.43;13.00;;;2.90;99.90;;;;;;5026866;28;20518;-81
2021/01/09 01:51:03;;;;;;;15.90;11.60;;;2.80;99.90;;;;;;5016687;28;20463;-82
2021/01/09 01:53:34;;;;;;;15.83;11.13;;;2.80;99.90;;;;;;5016357;28;20464;-82
2021/01/09 01:56:00;;;;;;;18.13;11.33;;;2.80;99.90;;;;;;5016933;28;20522;-82
2021/01/09 01:58:28;;;;;;;20.83;12.57;;;2.90;99.90;;;;;;5016131;28;20950;-81
2021/01/09 02:00:58;;;;;;;16.03;12.10;;;2.90;99.90;;;;;;5016810;28;20450;-82
2021/01/09 02:03:26;;;;;;;17.20;11.40;;;2.90;99.90;;;;;;5016372;28;20489;-82
2021/01/09 02:05:58;;;;;;;22.40;14.10;;;2.80;99.90;;;;;;5015786;28;20540;-82
2021/01/09 02:08:34;;;;;;;19.87;13.20;;;2.80;99.90;;;;;;5025563;28;20473;-82
2021/01/09 02:11:03;;;;;;;16.97;13.30;;;2.80;99.90;;;;;;5036112;28;20453;-82
2021/01/09 02:13:44;;;;;;;21.90;13.50;;;2.80;99.90;;;;;;5016370;28;20457;-82
2021/01/09 02:16:19;;;;;;;19.60;12.67;;;2.80;99.90;;;;;;5015474;28;20443;-82
2021/01/09 02:18:55;;;;;;;21.87;14.27;;;2.70;99.90;;;;;;5015710;28;20520;-82
2021/01/09 02:21:28;;;;;;;21.87;14.63;;;2.60;99.90;;;;;;5015388;28;20451;-82
2021/01/09 02:23:55;;;;;;;23.10;15.53;;;2.50;99.90;;;;;;5015948;28;20565;-82
2021/01/09 02:26:25;;;;;;;18.07;13.03;;;2.50;99.90;;;;;;5015145;28;20458;-82
2021/01/09 02:28:56;;;;;;;22.73;15.17;;;2.60;99.90;;;;;;5015542;28;21032;-82
2021/01/09 02:31:24;;;;;;;28.27;18.03;;;2.50;99.90;;;;;;5015056;28;20532;-82
2021/01/09 02:33:52;;;;;;;31.00;16.50;;;2.50;99.90;;;;;;5018918;28;20499;-81
2021/01/09 02:36:21;;;;;;;27.90;18.87;;;2.40;99.90;;;;;;5018727;28;20446;-82
2021/01/09 02:38:47;;;;;;;25.67;15.17;;;2.50;99.90;;;;;;5016292;28;20536;-82
2021/01/09 02:41:16;;;;;;;29.77;18.40;;;2.60;99.90;;;;;;5015540;28;20450;-86
2021/01/09 02:43:46;;;;;;;25.13;14.80;;;2.60;99.90;;;;;;5016333;28;20579;-82
2021/01/09 02:46:15;;;;;;;23.60;15.57;;;2.60;99.90;;;;;;5016267;28;20198;-82
2021/01/09 02:48:42;;;;;;;25.57;16.20;;;2.60;99.90;;;;;;5015584;28;20450;-82
2021/01/09 02:51:09;;;;;;;25.70;15.90;;;2.70;99.90;;;;;;5015514;28;20445;-82
2021/01/09 02:53:39;;;;;;;26.40;15.97;;;2.80;99.90;;;;;;5016924;28;20452;-82
2021/01/09 02:56:13;;;;;;;23.73;15.03;;;2.90;99.90;;;;;;5015597;28;20440;-82
2021/01/09 02:58:40;;;;;;;22.40;15.03;;;2.90;99.90;;;;;;5015138;28;20465;-82
2021/01/09 03:01:09;;;;;;;21.70;13.10;;;2.90;99.90;;;;;;5015658;28;20488;-82
2021/01/09 03:03:35;;;;;;;23.03;13.00;;;3.00;99.90;;;;;;5014956;28;20942;-82
2021/01/09 03:06:03;;;;;;;22.37;14.03;;;2.90;99.90;;;;;;5015101;28;20450;-82
2021/01/09 03:08:33;;;;;;;24.50;14.73;;;2.90;99.90;;;;;;5014870;28;20466;-81
2021/01/09 03:10:59;;;;;;;22.20;13.93;;;3.00;99.90;;;;;;5014912;28;20569;-82
2021/01/09 03:13:31;;;;;;;22.83;14.83;;;3.00;99.90;;;;;;5014021;28;20547;-81
2021/01/09 03:16:01;;;;;;;27.07;15.50;;;3.00;99.90;;;;;;5014835;28;20480;-81
2021/01/09 03:18:32;;;;;;;24.77;15.20;;;3.00;99.90;;;;;;5014231;28;20472;-82
2021/01/09 03:20:59;;;;;;;23.63;13.67;;;2.90;99.90;;;;;;5014000;28;20927;-82
2021/01/09 03:23:27;;;;;;;24.63;15.00;;;2.90;99.90;;;;;;5014141;28;20533;-82
2021/01/09 03:25:53;;;;;;;22.00;15.50;;;2.90;99.90;;;;;;5015057;28;20766;-82
2021/01/09 03:28:21;;;;;;;23.77;15.77;;;3.00;99.90;;;;;;5014423;28;20549;-86
2021/01/09 03:30:54;;;;;;;22.37;13.53;;;3.00;99.90;;;;;;5014744;28;20572;-81
2021/01/09 03:33:21;;;;;;;21.53;13.73;;;3.10;99.90;;;;;;5013864;28;20444;-82
2021/01/09 03:35:52;;;;;;;22.73;15.07;;;3.00;99.90;;;;;;5006071;28;20453;-82
2021/01/09 03:38:18;;;;;;;21.27;13.97;;;3.00;99.90;;;;;;5010514;28;20465;-87
2021/01/09 03:40:47;;;;;;;22.60;15.33;;;3.00;99.90;;;;;;5014292;28;20481;-82
2021/01/09 03:43:13;;;;;;;19.43;13.47;;;2.90;99.90;;;;;;5014366;28;20524;-82
2021/01/09 03:45:40;;;;;;;24.30;15.47;;;2.90;99.90;;;;;;5013814;28;20449;-82
2021/01/09 03:48:07;;;;;;;20.40;14.43;;;3.00;99.90;;;;;;5014404;28;20453;-82
2021/01/09 03:50:41;;;;;;;20.47;12.50;;;3.00;99.90;;;;;;5013304;28;20534;-82
2021/01/09 03:53:10;;;;;;;18.30;13.20;;;3.00;99.90;;;;;;5015185;28;20871;-81
2021/01/09 03:55:37;;;;;;;18.97;14.20;;;2.90;99.90;;;;;;5014295;28;20473;-82
2021/01/09 03:58:04;;;;;;;21.30;12.27;;;2.80;99.90;;;;;;5015935;28;20454;-82
2021/01/09 04:00:32;;;;;;;20.20;13.10;;;2.90;99.90;;;;;;5014388;28;21041;-81
2021/01/09 04:02:59;;;;;;;23.70;15.23;;;2.90;99.90;;;;;;5015051;28;20497;-82
2021/01/09 04:05:25;;;;;;;17.93;12.43;;;2.90;99.90;;;;;;5014157;28;21069;-82
2021/01/09 04:07:53;;;;;;;20.90;13.73;;;2.90;99.90;;;;;;5014134;28;20533;-82
2021/01/09 04:10:21;;;;;;;21.25;11.60;;;2.80;99.90;;;;;;5013986;28;20455;-88
2021/01/09 04:12:48;;;;;;;18.05;12.73;;;2.70;99.90;;;;;;5014289;28;20293;-82
2021/01/09 04:15:14;;;;;;;16.93;12.60;;;2.70;99.90;;;;;;5014079;28;20195;-82
2021/01/09 04:17:41;;;;;;;25.77;17.87;;;2.80;99.90;;;;;;5013487;28;21198;-82
2021/01/09 04:20:11;;;;;;;20.87;14.60;;;2.70;99.90;;;;;;5014791;28;20458;-82
2021/01/09 04:22:37;;;;;;;22.13;15.13;;;2.50;99.90;;;;;;5013953;28;20977;-82
2021/01/09 04:25:13;;;;;;;19.63;12.68;;;2.60;99.90;;;;;;5013425;28;20817;-82
2021/01/09 04:27:42;;;;;;;21.73;14.40;;;2.60;99.90;;;;;;5012912;28;20642;-82
2021/01/09 04:30:10;;;;;;;19.77;13.53;;;2.60;99.90;;;;;;5014431;28;20616;-82
2021/01/09 04:32:39;;;;;;;20.40;15.43;;;2.60;99.90;;;;;;5016112;28;20525;-82
2021/01/09 04:35:09;;;;;;;22.00;14.53;;;2.60;99.90;;;;;;5018119;28;20536;-82
2021/01/09 04:37:38;;;;;;;26.80;15.07;;;2.70;99.90;;;;;;5017286;28;20446;-82
2021/01/09 04:40:12;;;;;;;24.00;16.23;;;2.70;99.90;;;;;;5017226;28;20460;-82
2021/01/09 04:42:45;;;;;;;22.97;14.60;;;2.70;99.90;;;;;;5017607;28;20449;-82
2021/01/09 04:45:15;;;;;;;27.00;16.00;;;2.70;99.90;;;;;;5017423;28;20491;-82
2021/01/09 04:47:47;;;;;;;25.40;13.30;;;2.70;99.90;;;;;;5016727;28;20517;-81
2021/01/09 04:50:14;;;;;;;19.13;12.97;;;2.60;99.90;;;;;;5017408;28;20470;-82
2021/01/09 04:52:43;;;;;;;20.10;12.63;;;2.60;99.90;;;;;;5017214;28;20985;-82
2021/01/09 04:55:11;;;;;;;21.63;13.37;;;2.60;99.90;;;;;;5017063;28;20290;-82
2021/01/09 04:57:43;;;;;;;24.73;15.20;;;2.50;99.90;;;;;;5017108;28;20576;-82
2021/01/09 05:00:15;;;;;;;19.23;12.63;;;2.50;99.90;;;;;;5016146;28;20576;-82
2021/01/09 05:02:56;;;;;;;18.23;12.83;;;2.60;99.90;;;;;;5016349;28;20434;-82
2021/01/09 05:05:25;;;;;;;19.10;13.30;;;2.60;99.90;;;;;;5014414;28;20580;-86
2021/01/09 05:07:53;;;;;;;17.55;11.70;;;2.60;99.90;;;;;;5016686;28;20445;-82
2021/01/09 05:10:24;;;;;;;19.33;12.30;;;2.60;99.90;;;;;;5015776;28;20211;-82
2021/01/09 05:12:58;;;;;;;22.05;14.25;;;2.60;99.90;;;;;;5016920;28;20530;-82
2021/01/09 05:15:36;;;;;;;22.50;13.47;;;2.60;99.90;;;;;;5016214;28;20287;-86
2021/01/09 05:18:09;;;;;;;17.47;11.43;;;2.60;99.90;;;;;;5016436;28;20491;-82
2021/01/09 05:20:39;;;;;;;18.23;12.35;;;2.70;99.90;;;;;;5016163;28;20433;-81
2021/01/09 05:23:13;;;;;;;18.23;11.73;;;2.60;99.90;;;;;;5016724;28;20590;-82
2021/01/09 05:25:47;;;;;;;20.00;12.27;;;2.60;99.90;;;;;;5016253;28;20814;-82
2021/01/09 05:28:20;;;;;;;22.10;14.73;;;2.70;99.90;;;;;;5016442;28;20456;-82
2021/01/09 05:30:52;;;;;;;23.43;13.50;;;2.60;99.90;;;;;;5016502;28;20506;-82
2021/01/09 05:33:23;;;;;;;23.87;13.53;;;2.50;99.90;;;;;;5016159;28;20962;-82
2021/01/09 05:35:54;;;;;;;29.63;16.08;;;2.50;99.90;;;;;;5016209;28;20465;-82
2021/01/09 05:38:39;;;;;;;21.37;13.30;;;2.50;99.90;;;;;;5016591;28;20275;-82
2021/01/09 05:41:17;;;;;;;21.83;14.27;;;2.50;99.90;;;;;;5016784;28;20546;-81
2021/01/09 05:44:01;;;;;;;23.83;15.20;;;2.40;99.90;;;;;;5014936;28;20471;-82
2021/01/09 05:46:29;;;;;;;19.23;12.73;;;2.40;99.90;;;;;;5015825;28;20438;-83
2021/01/09 05:48:55;;;;;;;19.50;13.93;;;2.40;99.90;;;;;;5015849;28;20465;-82
2021/01/09 05:51:27;;;;;;;21.75;12.38;;;2.40;99.90;;;;;;5016082;28;20276;-87
2021/01/09 05:53:54;;;;;;;18.77;11.70;;;2.50;99.90;;;;;;5016059;28;20211;-82
2021/01/09 05:56:24;;;;;;;16.95;11.60;;;2.60;99.90;;;;;;5016132;28;20766;-82
2021/01/09 05:58:52;;;;;;;23.47;12.73;;;2.70;99.90;;;;;;5015482;28;20201;-82
2021/01/09 06:01:26;;;;;;;23.17;13.40;;;2.70;99.90;;;;;;5016157;28;20953;-82
2021/01/09 06:03:59;;;;;;;22.80;14.10;;;2.60;99.90;;;;;;5015704;28;20479;-82
2021/01/09 06:06:45;;;;;;;25.55;13.85;;;2.50;99.90;;;;;;5015254;28;20529;-87
2021/01/09 06:09:18;;;;;;;21.93;12.70;;;2.50;99.90;;;;;;5015539;28;20195;-82
2021/01/09 06:11:46;;;;;;;22.10;13.57;;;2.50;99.90;;;;;;5015421;28;20456;-82
2021/01/09 06:14:14;;;;;;;24.20;11.13;;;2.60;99.90;;;;;;5015675;28;20600;-81
2021/01/09 06:16:42;;;;;;;18.63;12.50;;;2.60;99.90;;;;;;5014914;28;20661;-82
2021/01/09 06:19:09;;;;;;;19.40;12.33;;;2.70;99.90;;;;;;5015549;28;20758;-82
2021/01/09 06:21:37;;;;;;;15.90;11.60;;;2.70;99.90;;;;;;5014943;28;20450;-81
2021/01/09 06:24:04;;;;;;;17.63;11.73;;;2.70;99.90;;;;;;5015483;28;20494;-82
2021/01/09 06:26:32;;;;;;;18.60;12.57;;;2.80;99.90;;;;;;5014927;28;20191;-82
2021/01/09 06:29:19;;;;;;;20.60;13.13;;;2.80;99.90;;;;;;5014816;28;20546;-82
2021/01/09 06:31:53;;;;;;;19.77;13.33;;;2.80;99.90;;;;;;5015353;28;20477;-82
2021/01/09 06:34:28;;;;;;;18.17;11.13;;;2.80;99.90;;;;;;4995489;28;21026;-82
2021/01/09 06:36:58;;;;;;;20.90;11.97;;;2.80;99.90;;;;;;5005491;28;20473;-82
2021/01/09 06:39:28;;;;;;;18.50;12.10;;;2.70;99.90;;;;;;5015580;28;20795;-88
2021/01/09 06:41:56;;;;;;;27.50;15.27;;;2.70;99.90;;;;;;5015230;28;20496;-82
2021/01/09 06:44:26;;;;;;;22.83;13.60;;;2.80;99.90;;;;;;5014586;28;20551;-82
2021/01/09 06:46:55;;;;;;;24.03;14.63;;;2.80;99.90;;;;;;5014688;28;20435;-82
2021/01/09 06:49:26;;;;;;;23.90;15.13;;;2.80;99.90;;;;;;5014827;28;20449;-82
2021/01/09 06:51:57;;;;;;;25.83;16.53;;;2.70;99.90;;;;;;5014620;28;20548;-82
2021/01/09 06:54:44;;;;;;;26.00;15.83;;;2.60;99.90;;;;;;5015052;28;20446;-82
2021/01/09 06:57:15;;;;;;;25.77;17.27;;;2.60;99.90;;;;;;5014484;28;20468;-82
2021/01/09 06:59:55;;;;;;;26.10;15.75;;;2.60;99.90;;;;;;5013866;28;20203;-81
2021/01/09 07:02:27;;;;;;;25.70;17.52;;;2.60;99.90;;;;;;5014117;28;20626;-82
2021/01/09 07:05:02;;;;;;;38.20;21.20;;;2.70;99.90;;;;;;5014616;28;20276;-82
2021/01/09 07:07:36;;;;;;;21.20;14.47;;;2.50;99.90;;;;;;5014038;28;20285;-84
2021/01/09 07:10:23;;;;;;;26.07;15.50;;;2.50;99.90;;;;;;5014599;28;20545;-82
2021/01/09 07:12:53;;;;;;;26.90;16.43;;;2.50;99.90;;;;;;5014105;28;20528;-82
2021/01/09 07:15:23;;;;;;;23.13;15.13;;;2.50;99.90;;;;;;5014599;28;20533;-81
2021/01/09 07:18:02;;;;;;;30.10;18.23;;;2.50;99.90;;;;;;5013765;28;20281;-81
2021/01/09 07:20:35;;;;;;;20.15;14.15;;;2.40;99.90;;;;;;5010080;28;20492;-87
2021/01/09 07:23:05;;;;;;;26.63;15.32;;;2.50;99.90;;;;;;5013576;28;20187;-81
2021/01/09 07:25:38;;;;;;;24.20;14.83;;;2.40;99.90;;;;;;5013181;28;20219;-84
2021/01/09 07:28:16;;;;;;;21.92;13.80;;;2.50;99.90;;;;;;5013371;28;20547;-82
2021/01/09 07:31:08;;;;;;;22.95;13.35;;;2.50;99.90;;;;;;5012363;28;20230;-84
2021/01/09 07:34:06;;;;;;;19.87;13.40;;;2.40;99.90;;;;;;5013538;28;20270;-82
2021/01/09 07:36:39;;;;;;;24.70;15.10;;;2.40;99.90;;;;;;5013748;28;20446;-82
2021/01/09 07:39:11;;;;;;;21.47;13.20;;;2.40;99.90;;;;;;5014379;28;20513;-82
2021/01/09 07:41:41;;;;;;;20.52;14.07;;;2.50;99.90;;;;;;5013331;28;20453;-82
2021/01/09 07:44:12;;;;;;;20.98;14.80;;;2.40;99.90;;;;;;5014143;28;20219;-82
2021/01/09 07:46:56;;;;;;;22.95;13.45;;;2.40;99.90;;;;;;5013253;28;20297;-83
2021/01/09 07:49:29;;;;;;;23.83;14.05;;;2.50;99.90;;;;;;5013806;28;20191;-83
2021/01/09 07:52:02;;;;;;;24.30;15.30;;;2.50;99.90;;;;;;5013466;28;20277;-82
2021/01/09 07:54:35;;;;;;;25.60;16.15;;;2.60;99.90;;;;;;5013905;28;20457;-85
2021/01/09 07:57:01;;;;;;;22.50;15.23;;;2.70;99.90;;;;;;5014192;28;20271;-82
2021/01/09 07:59:32;;;;;;;22.97;14.53;;;2.70;99.90;;;;;;5013548;28;20207;-86
2021/01/09 08:02:01;;;;;;;20.95;14.38;;;2.80;99.90;;;;;;5013581;28;20480;-82
2021/01/09 08:04:34;;;;;;;25.85;16.50;;;2.80;99.90;;;;;;5013148;28;20229;-88
2021/01/09 08:07:01;;;;;;;26.20;15.93;;;2.90;99.90;;;;;;5014500;28;20195;-82
2021/01/09 08:09:29;;;;;;;23.83;15.03;;;2.90;99.90;;;;;;5017731;28;20538;-84
2021/01/09 08:11:57;;;;;;;25.97;15.63;;;3.00;99.90;;;;;;5017976;28;20461;-82
2021/01/09 08:14:26;;;;;;;27.37;17.30;;;3.00;99.90;;;;;;5018521;28;20461;-80
2021/01/09 08:16:53;;;;;;;27.37;18.73;;;2.90;99.90;;;;;;4998640;28;20447;-80
2021/01/09 08:19:24;;;;;;;33.57;20.60;;;2.90;99.90;;;;;;4998955;28;20500;-80
2021/01/09 08:21:52;;;;;;;25.87;17.53;;;2.70;99.90;;;;;;5009637;28;20413;-80
2021/01/09 08:24:24;;;;;;;26.90;18.95;;;2.80;99.90;;;;;;5017174;28;20454;-83
2021/01/09 08:26:56;;;;;;;26.63;17.00;;;2.70;99.90;;;;;;5017661;28;20478;-83
2021/01/09 08:29:23;;;;;;;32.78;20.92;;;2.70;99.90;;;;;;5017920;28;20478;-83
2021/01/09 08:31:57;;;;;;;39.22;20.45;;;2.40;99.90;;;;;;5017988;28;20279;-83
2021/01/09 08:34:25;;;;;;;33.70;19.23;;;2.40;99.90;;;;;;5017477;28;20227;-83
2021/01/09 08:36:57;;;;;;;27.80;16.35;;;2.30;99.90;;;;;;5017697;28;20551;-83
2021/01/09 08:39:27;;;;;;;30.33;17.85;;;2.50;99.90;;;;;;5018060;28;20203;-83
2021/01/09 08:41:53;;;;;;;42.90;23.45;;;2.50;99.90;;;;;;5017245;28;20196;-83
2021/01/09 08:44:20;;;;;;;37.25;20.83;;;2.50;99.90;;;;;;5017118;28;20346;-83
2021/01/09 08:46:47;;;;;;;34.90;20.25;;;2.60;99.90;;;;;;5016670;28;20202;-83
2021/01/09 08:49:24;;;;;;;33.20;20.15;;;2.60;99.90;;;;;;5016795;28;20202;-83
2021/01/09 08:51:58;;;;;;;33.08;20.48;;;2.80;99.90;;;;;;5016513;28;20210;-83
2021/01/09 08:54:29;;;;;;;35.63;20.65;;;2.90;99.90;;;;;;5017366;28;20291;-84
2021/01/09 08:56:57;;;;;;;34.03;18.27;;;3.00;99.90;;;;;;5016293;28;20333;-83
2021/01/09 08:59:26;;;;;;;32.83;19.80;;;3.10;99.90;;;;;;5016277;28;20481;-83
2021/01/09 09:01:59;;;;;;;43.77;22.50;;;3.20;99.90;;;;;;5015710;28;20499;-83
2021/01/09 09:04:27;;;;;;;42.92;22.10;;;3.20;99.90;;;;;;5013675;28;20469;-83
2021/01/09 09:07:03;;;;;;;51.73;24.90;;;3.30;99.90;;;;;;5014267;28;20306;-83
2021/01/09 09:09:32;;;;;;;48.17;23.63;;;3.20;99.90;;;;;;5014959;28;20486;-82
2021/01/09 09:12:01;;;;;;;46.70;21.37;;;3.30;99.90;;;;;;5015451;28;20451;-82
2021/01/09 09:14:30;;;;;;;44.13;23.43;;;3.40;99.90;;;;;;5015271;28;20518;-84
2021/01/09 09:17:01;;;;;;;42.43;23.67;;;3.50;99.90;;;;;;5015427;28;20460;-83
2021/01/09 09:19:35;;;;;;;49.83;26.00;;;3.60;99.90;;;;;;5014661;28;20516;-83
2021/01/09 09:22:02;;;;;;;49.83;24.80;;;3.80;99.90;;;;;;5015423;28;20479;-83
2021/01/09 09:24:39;;;;;;;55.23;27.23;;;3.80;99.90;;;;;;5015960;28;20578;-82
2021/01/09 09:27:19;;;;;;;47.63;26.17;;;3.80;99.90;;;;;;5015856;28;20549;-82
2021/01/09 09:29:46;;;;;;;48.23;25.03;;;3.80;99.90;;;;;;5016473;28;20478;-82
2021/01/09 09:32:46;;;;;;;46.43;25.20;;;3.90;99.90;;;;;;5030466;28;20444;-82
2021/01/09 09:35:23;;;;;;;51.60;27.87;;;3.90;99.90;;;;;;5016730;28;20481;-82
2021/01/09 09:37:53;;;;;;;50.50;27.07;;;3.70;99.90;;;;;;5015998;28;20510;-82
2021/01/09 09:40:29;;;;;;;49.90;26.93;;;3.60;99.90;;;;;;5016215;28;20550;-82
2021/01/09 09:43:14;;;;;;;48.40;25.87;;;3.70;99.90;;;;;;5015505;28;20450;-82
2021/01/09 09:45:55;;;;;;;55.00;27.23;;;3.70;99.90;;;;;;5015075;28;20496;-82
2021/01/09 09:48:37;;;;;;;58.87;27.70;;;3.90;99.90;;;;;;5015628;28;20435;-82
2021/01/09 09:51:12;;;;;;;62.67;29.37;;;3.90;99.90;;;;;;5017072;28;20872;-82
2021/01/09 09:53:41;;;;;;;56.90;29.67;;;3.80;99.90;;;;;;5014264;28;20527;-83
2021/01/09 09:56:17;;;;;;;57.50;29.57;;;3.90;99.90;;;;;;5014869;28;20455;-82
2021/01/09 09:58:44;;;;;;;78.73;33.87;;;4.00;99.90;;;;;;4997078;28;20802;-82
2021/01/09 10:01:18;;;;;;;71.83;31.20;;;3.90;99.90;;;;;;5015391;28;20540;-82
2021/01/09 10:03:49;;;;;;;82.07;35.40;;;3.90;99.90;;;;;;5014743;28;20445;-81
2021/01/09 10:06:17;;;;;;;64.83;30.07;;;3.90;99.90;;;;;;5015202;28;20446;-81
2021/01/09 10:08:44;;;;;;;58.77;29.77;;;3.80;99.90;;;;;;5013262;28;20460;-82
2021/01/09 10:11:11;;;;;;;73.90;35.40;;;3.90;99.90;;;;;;5015803;28;20835;-82
2021/01/09 10:13:40;;;;;;;66.10;32.70;;;3.80;99.90;;;;;;5014714;28;20508;-85
2021/01/09 10:16:07;;;;;;;66.20;31.93;;;3.60;99.90;;;;;;5015263;28;20491;-82
2021/01/09 10:18:35;;;;;;;73.67;32.60;;;3.70;99.90;;;;;;5014844;28;20926;-83
2021/01/09 10:21:04;;;;;;;59.17;31.53;;;3.70;99.90;;;;;;5014704;28;20458;-84
2021/01/09 10:23:32;;;;;;;67.87;31.90;;;3.70;99.90;;;;;;5015246;28;20486;-82
2021/01/09 10:25:58;;;;;;;64.70;34.27;;;3.80;99.90;;;;;;5014815;28;20503;-82
2021/01/09 10:28:25;;;;;;;62.37;32.93;;;3.70;99.90;;;;;;5015071;28;20676;-84
2021/01/09 10:30:54;;;;;;;52.63;29.20;;;3.70;99.90;;;;;;5014716;28;20531;-82
2021/01/09 10:33:29;;;;;;;54.33;32.00;;;3.60;99.90;;;;;;5015653;28;20838;-82
2021/01/09 10:36:01;;;;;;;64.80;32.20;;;3.60;99.90;;;;;;5014023;28;20458;-82
2021/01/09 10:38:29;;;;;;;52.83;29.57;;;3.60;99.90;;;;;;5014688;28;20463;-82
2021/01/09 10:40:56;;;;;;;101.50;46.80;;;3.70;99.90;;;;;;5014099;28;20460;-82
2021/01/09 10:43:23;;;;;;;66.73;33.77;;;3.80;99.90;;;;;;5014969;28;20526;-81
2021/01/09 10:45:52;;;;;;;62.07;31.10;;;3.70;99.90;;;;;;5014114;28;20581;-83
2021/01/09 10:48:18;;;;;;;63.13;33.53;;;3.70;99.90;;;;;;5014763;28;20454;-84
2021/01/09 10:50:45;;;;;;;61.13;34.43;;;3.80;99.90;;;;;;5015634;28;20549;-81
2021/01/09 10:53:11;;;;;;;65.50;32.73;;;3.70;99.90;;;;;;5015446;28;20536;-82
2021/01/09 10:55:41;;;;;;;54.47;30.80;;;3.70;99.90;;;;;;5015069;28;20541;-87
2021/01/09 10:58:08;;;;;;;57.30;30.23;;;3.70;99.90;;;;;;5015325;28;20613;-81
2021/01/09 11:00:34;;;;;;;53.63;29.57;;;3.80;99.90;;;;;;5015174;28;20801;-82
2021/01/09 11:03:01;;;;;;;58.20;33.30;;;3.80;99.90;;;;;;5014818;28;20536;-82
2021/01/09 11:05:30;;;;;;;55.13;30.63;;;3.80;99.90;;;;;;5014777;28;20620;-83
2021/01/09 11:07:56;;;;;;;62.70;31.63;;;3.60;99.90;;;;;;5014797;28;20905;-81
2021/01/09 11:10:23;;;;;;;47.90;25.10;;;3.70;99.90;;;;;;5015167;28;20454;-82
2021/01/09 11:12:49;;;;;;;43.87;25.00;;;3.80;99.90;;;;;;5014565;28;20442;-82
2021/01/09 11:15:16;;;;;;;35.70;22.53;;;4.00;99.90;;;;;;5014872;28;20547;-83
2021/01/09 11:17:45;;;;;;;44.33;26.37;;;4.10;99.90;;;;;;5014249;28;20553;-82
2021/01/09 11:20:11;;;;;;;44.90;27.23;;;4.10;99.90;;;;;;5014717;28;20531;-82
2021/01/09 11:22:38;;;;;;;38.70;22.90;;;4.00;99.90;;;;;;5014019;28;20970;-87
2021/01/09 11:25:08;;;;;;;42.90;26.60;;;4.00;99.90;;;;;;5013728;28;20488;-81
2021/01/09 11:27:39;;;;;;;47.17;24.10;;;3.90;99.90;;;;;;5002335;28;20560;-87
2021/01/09 11:30:06;;;;;;;38.87;23.33;;;3.80;99.90;;;;;;4995225;28;22084;-82
2021/01/09 11:32:34;;;;;;;32.10;21.37;;;3.80;99.90;;;;;;4993959;28;20462;-82
2021/01/09 11:35:02;;;;;;;39.70;23.43;;;3.80;99.90;;;;;;5012246;28;20576;-82
2021/01/09 11:37:57;;;;;;;48.37;27.07;;;4.00;99.90;;;;;;5010188;28;20468;-82
2021/01/09 11:40:23;;;;;;;40.60;23.93;;;3.90;99.90;;;;;;5000361;28;20745;-82
2021/01/09 11:42:53;;;;;;;39.37;26.63;;;3.90;99.90;;;;;;5012769;28;20535;-82
2021/01/09 11:45:20;;;;;;;57.77;29.20;;;3.90;99.90;;;;;;5013678;28;20560;-83
2021/01/09 11:48:13;;;;;;;39.10;23.20;;;3.80;99.90;;;;;;5014360;28;20756;-81
2021/01/09 11:50:43;;;;;;;29.47;20.07;;;3.80;99.90;;;;;;5013575;28;20450;-87
2021/01/09 11:53:10;;;;;;;25.40;17.50;;;3.60;99.90;;;;;;5014506;28;20450;-83
2021/01/09 11:55:36;;;;;;;23.90;16.80;;;3.60;99.90;;;;;;5012690;28;20847;-84
2021/01/09 12:00:59;;;;;;;23.47;17.63;;;3.70;99.90;;;;;;5010555;28;20518;-83
2021/01/09 12:03:32;;;;;;;21.23;16.17;;;3.60;99.90;;;;;;5014414;28;20504;-83
2021/01/09 12:06:01;;;;;;;27.77;17.87;;;3.60;99.90;;;;;;5014116;28;20551;-85
2021/01/09 12:08:28;;;;;;;26.20;16.67;;;3.60;99.90;;;;;;5014115;28;20964;-83
2021/01/09 12:10:57;;;;;;;28.27;19.10;;;3.80;99.90;;;;;;5013019;28;20946;-83
2021/01/09 12:13:29;;;;;;;31.80;19.77;;;3.70;99.90;;;;;;5012165;28;20463;-86
2021/01/09 12:16:00;;;;;;;25.07;14.97;;;3.70;99.90;;;;;;4999400;28;20556;-85
2021/01/09 12:18:36;;;;;;;27.40;19.60;;;3.90;99.90;;;;;;5014037;28;20856;-83
2021/01/09 12:21:03;;;;;;;21.37;15.80;;;3.90;99.90;;;;;;5013814;28;20446;-82
2021/01/09 12:23:32;;;;;;;28.77;17.63;;;3.90;99.90;;;;;;5013362;28;20525;-84
2021/01/09 12:25:59;;;;;;;27.67;16.13;;;3.90;99.90;;;;;;4996435;28;20513;-86
2021/01/09 12:31:22;;;;;;;28.93;17.23;;;3.80;99.90;;;;;;5006884;28;20479;-84
2021/01/09 12:33:52;;;;;;;26.10;15.70;;;3.90;99.90;;;;;;5012648;28;20529;-83
2021/01/09 12:36:18;;;;;;;26.73;16.83;;;3.90;99.90;;;;;;5013665;28;20462;-83
2021/01/09 12:38:48;;;;;;;22.87;14.70;;;4.00;99.90;;;;;;5013193;28;20520;-84
2021/01/09 12:41:24;;;;;;;23.00;16.00;;;4.00;99.90;;;;;;5013827;28;20540;-83
2021/01/09 12:43:55;;;;;;;22.40;13.80;;;4.20;99.90;;;;;;5014040;28;20780;-83
2021/01/09 12:46:23;;;;;;;23.67;13.80;;;4.30;99.90;;;;;;5013512;28;20562;-83
2021/01/09 12:48:57;;;;;;;27.80;17.57;;;4.30;99.90;;;;;;5013434;28;20488;-82
2021/01/09 12:51:23;;;;;;;24.40;16.07;;;4.30;99.90;;;;;;5014039;28;20521;-83
2021/01/09 12:53:55;;;;;;;28.97;18.40;;;4.40;99.90;;;;;;5016247;28;20961;-83
2021/01/09 12:56:21;;;;;;;27.03;17.03;;;4.30;99.90;;;;;;5023436;28;20453;-82
2021/01/09 12:58:50;;;;;;;31.13;17.20;;;4.30;99.90;;;;;;5015793;28;20546;-83
2021/01/09 13:01:35;;;;;;;37.40;20.13;;;4.30;99.90;;;;;;5011363;28;20487;-84